sensor_id;sensor_type;location;lat;lon;timestamp;pressure;altitude;pressure_sealevel;temperature;humidity
31717;BME280;18301;51.076;17.046;2022-10-16T00:00:21;100127.84;;;13.48;98.11
31717;BME280;18301;51.076;17.046;2022-10-16T00:05:23;100125.00;;;13.49;98.51
31717;BME280;18301;51.076;17.046;2022-10-16T00:10:24;100138.56;;;13.49;99.77
31717;BME280;18301;51.076;17.046;2022-10-16T00:15:26;100135.44;;;13.64;98.59
31717;BME280;18301;51.076;17.046;2022-10-16T00:20:27;100134.75;;;13.62;98.70
31717;BME280;18301;51.076;17.046;2022-10-16T00:25:29;100124.88;;;13.61;98.40
31717;BME280;18301;51.076;17.046;2022-10-16T00:30:30;100124.00;;;13.60;98.10
31717;BME280;18301;51.076;17.046;2022-10-16T00:35:32;100128.88;;;13.56;98.20
31717;BME280;18301;51.076;17.046;2022-10-16T00:40:33;100126.44;;;13.63;97.99
31717;BME280;18301;51.076;17.046;2022-10-16T00:45:35;100133.41;;;13.46;98.60
31717;BME280;18301;51.076;17.046;2022-10-16T00:50:36;100131.94;;;13.42;98.51
31717;BME280;18301;51.076;17.046;2022-10-16T00:55:38;100124.53;;;13.34;98.86
31717;BME280;18301;51.076;17.046;2022-10-16T01:00:42;100133.94;;;13.30;99.33
31717;BME280;18301;51.076;17.046;2022-10-16T01:05:54;100126.53;;;13.42;98.89
31717;BME280;18301;51.076;17.046;2022-10-16T01:11:06;100125.97;;;13.39;99.71
31717;BME280;18301;51.076;17.046;2022-10-16T01:16:35;100129.94;;;13.34;99.59
31717;BME280;18301;51.076;17.046;2022-10-16T01:21:42;100128.28;;;13.43;98.96
31717;BME280;18301;51.076;17.046;2022-10-16T01:27:10;100128.28;;;13.43;98.61
31717;BME280;18301;51.076;17.046;2022-10-16T01:32:52;100137.22;;;13.34;98.66
31717;BME280;18301;51.076;17.046;2022-10-16T01:43:16;100127.56;;;13.51;98.34
31717;BME280;18301;51.076;17.046;2022-10-16T01:48:19;100119.03;;;13.55;97.84
31717;BME280;18301;51.076;17.046;2022-10-16T01:53:23;100131.28;;;13.59;97.72
31717;BME280;18301;51.076;17.046;2022-10-16T01:58:26;100125.09;;;13.38;98.40
31717;BME280;18301;51.076;17.046;2022-10-16T02:03:29;100131.34;;;13.29;98.78
31717;BME280;18301;51.076;17.046;2022-10-16T02:08:31;100134.38;;;13.35;98.67
31717;BME280;18301;51.076;17.046;2022-10-16T02:13:44;100137.09;;;13.45;98.92
31717;BME280;18301;51.076;17.046;2022-10-16T02:18:46;100138.00;;;13.55;98.36
31717;BME280;18301;51.076;17.046;2022-10-16T02:23:54;100146.69;;;13.49;98.36
31717;BME280;18301;51.076;17.046;2022-10-16T02:29:01;100150.22;;;13.40;98.70
31717;BME280;18301;51.076;17.046;2022-10-16T02:34:06;100164.47;;;13.42;98.61
31717;BME280;18301;51.076;17.046;2022-10-16T02:39:09;100165.47;;;13.41;98.85
31717;BME280;18301;51.076;17.046;2022-10-16T02:44:11;100162.69;;;13.52;98.92
31717;BME280;18301;51.076;17.046;2022-10-16T02:49:13;100168.53;;;13.57;98.38
31717;BME280;18301;51.076;17.046;2022-10-16T02:54:14;100163.84;;;13.59;98.14
31717;BME280;18301;51.076;17.046;2022-10-16T02:59:16;100168.22;;;13.51;98.23
31717;BME280;18301;51.076;17.046;2022-10-16T03:04:17;100163.94;;;13.48;98.55
31717;BME280;18301;51.076;17.046;2022-10-16T03:09:18;100181.78;;;13.51;98.97
31717;BME280;18301;51.076;17.046;2022-10-16T03:14:20;100186.81;;;13.55;99.18
31717;BME280;18301;51.076;17.046;2022-10-16T03:19:21;100190.09;;;13.59;99.47
31717;BME280;18301;51.076;17.046;2022-10-16T03:24:23;100185.16;;;13.74;99.51
31717;BME280;18301;51.076;17.046;2022-10-16T03:29:24;100187.72;;;13.85;99.52
31717;BME280;18301;51.076;17.046;2022-10-16T03:34:27;100194.16;;;13.94;99.66
31717;BME280;18301;51.076;17.046;2022-10-16T03:39:29;100199.56;;;13.84;100.00
31717;BME280;18301;51.076;17.046;2022-10-16T03:44:30;100194.03;;;13.86;100.00
31717;BME280;18301;51.076;17.046;2022-10-16T03:49:31;100207.44;;;13.87;100.00
31717;BME280;18301;51.076;17.046;2022-10-16T03:54:33;100203.88;;;13.96;100.00
31717;BME280;18301;51.076;17.046;2022-10-16T03:59:34;100203.72;;;13.88;100.00
31717;BME280;18301;51.076;17.046;2022-10-16T04:04:36;100209.19;;;13.98;100.00
31717;BME280;18301;51.076;17.046;2022-10-16T04:09:37;100203.75;;;13.98;100.00
31717;BME280;18301;51.076;17.046;2022-10-16T04:14:39;100212.75;;;13.89;100.00
31717;BME280;18301;51.076;17.046;2022-10-16T04:19:40;100218.44;;;13.86;100.00
31717;BME280;18301;51.076;17.046;2022-10-16T04:24:41;100217.72;;;13.84;100.00
31717;BME280;18301;51.076;17.046;2022-10-16T04:29:43;100220.00;;;13.88;100.00
31717;BME280;18301;51.076;17.046;2022-10-16T04:34:44;100224.44;;;13.89;100.00
31717;BME280;18301;51.076;17.046;2022-10-16T04:39:46;100234.44;;;13.89;100.00
31717;BME280;18301;51.076;17.046;2022-10-16T04:44:47;100236.81;;;13.82;100.00
31717;BME280;18301;51.076;17.046;2022-10-16T04:49:49;100237.81;;;13.81;100.00
31717;BME280;18301;51.076;17.046;2022-10-16T04:54:50;100243.06;;;13.73;100.00
31717;BME280;18301;51.076;17.046;2022-10-16T04:59:52;100224.09;;;13.73;100.00
31717;BME280;18301;51.076;17.046;2022-10-16T05:04:53;100230.50;;;13.72;100.00
31717;BME280;18301;51.076;17.046;2022-10-16T05:09:55;100243.31;;;13.60;100.00
31717;BME280;18301;51.076;17.046;2022-10-16T05:14:56;100244.97;;;13.51;100.00
31717;BME280;18301;51.076;17.046;2022-10-16T05:20:00;100248.16;;;13.56;100.00
31717;BME280;18301;51.076;17.046;2022-10-16T05:25:01;100243.75;;;13.55;100.00
31717;BME280;18301;51.076;17.046;2022-10-16T05:30:03;100253.53;;;13.47;100.00
31717;BME280;18301;51.076;17.046;2022-10-16T05:35:08;100244.00;;;13.52;100.00
31717;BME280;18301;51.076;17.046;2022-10-16T05:40:14;100250.09;;;13.45;100.00
31717;BME280;18301;51.076;17.046;2022-10-16T05:45:15;100262.72;;;13.55;100.00
31717;BME280;18301;51.076;17.046;2022-10-16T05:50:17;100258.66;;;13.71;100.00
31717;BME280;18301;51.076;17.046;2022-10-16T05:55:18;100260.53;;;13.80;100.00
31717;BME280;18301;51.076;17.046;2022-10-16T06:00:20;100264.13;;;13.90;100.00
31717;BME280;18301;51.076;17.046;2022-10-16T06:05:21;100277.41;;;13.93;100.00
31717;BME280;18301;51.076;17.046;2022-10-16T06:10:23;100278.84;;;13.97;100.00
31717;BME280;18301;51.076;17.046;2022-10-16T06:15:24;100287.75;;;14.19;100.00
31717;BME280;18301;51.076;17.046;2022-10-16T06:20:26;100287.53;;;14.32;100.00
31717;BME280;18301;51.076;17.046;2022-10-16T06:25:27;100291.38;;;14.48;100.00
31717;BME280;18301;51.076;17.046;2022-10-16T06:30:28;100302.44;;;14.57;100.00
31717;BME280;18301;51.076;17.046;2022-10-16T06:35:30;100298.72;;;14.67;100.00
31717;BME280;18301;51.076;17.046;2022-10-16T06:40:33;100312.03;;;14.80;100.00
31717;BME280;18301;51.076;17.046;2022-10-16T06:45:34;100316.47;;;14.91;100.00
31717;BME280;18301;51.076;17.046;2022-10-16T06:50:35;100330.78;;;15.03;100.00
31717;BME280;18301;51.076;17.046;2022-10-16T06:55:37;100331.63;;;15.13;100.00
31717;BME280;18301;51.076;17.046;2022-10-16T07:00:38;100336.19;;;15.22;100.00
31717;BME280;18301;51.076;17.046;2022-10-16T07:05:43;100344.75;;;15.17;100.00
31717;BME280;18301;51.076;17.046;2022-10-16T07:10:44;100349.91;;;15.11;100.00
31717;BME280;18301;51.076;17.046;2022-10-16T07:15:46;100351.38;;;15.15;100.00
31717;BME280;18301;51.076;17.046;2022-10-16T07:20:47;100358.66;;;15.24;100.00
31717;BME280;18301;51.076;17.046;2022-10-16T07:25:53;100358.19;;;15.38;100.00
31717;BME280;18301;51.076;17.046;2022-10-16T07:30:55;100361.03;;;15.56;100.00
31717;BME280;18301;51.076;17.046;2022-10-16T07:36:01;100361.28;;;15.73;100.00
31717;BME280;18301;51.076;17.046;2022-10-16T07:41:04;100360.16;;;15.75;100.00
31717;BME280;18301;51.076;17.046;2022-10-16T07:46:06;100368.44;;;15.83;100.00
31717;BME280;18301;51.076;17.046;2022-10-16T07:51:08;100352.81;;;15.85;100.00
31717;BME280;18301;51.076;17.046;2022-10-16T07:56:10;100364.94;;;16.01;100.00
31717;BME280;18301;51.076;17.046;2022-10-16T08:01:14;100361.00;;;16.13;100.00
31717;BME280;18301;51.076;17.046;2022-10-16T08:06:18;100365.84;;;16.29;100.00
31717;BME280;18301;51.076;17.046;2022-10-16T08:11:25;100373.28;;;16.54;100.00
31717;BME280;18301;51.076;17.046;2022-10-16T08:16:27;100389.25;;;16.67;99.87
31717;BME280;18301;51.076;17.046;2022-10-16T08:21:28;100383.19;;;16.73;99.56
31717;BME280;18301;51.076;17.046;2022-10-16T08:26:30;100398.91;;;16.89;98.11
31717;BME280;18301;51.076;17.046;2022-10-16T08:31:31;100397.41;;;16.95;97.88
31717;BME280;18301;51.076;17.046;2022-10-16T08:36:32;100391.34;;;17.01;97.45
31717;BME280;18301;51.076;17.046;2022-10-16T08:47:12;100404.06;;;17.10;98.24
31717;BME280;18301;51.076;17.046;2022-10-16T08:52:17;100412.38;;;17.26;97.62
31717;BME280;18301;51.076;17.046;2022-10-16T08:57:22;100419.16;;;17.40;95.42
31717;BME280;18301;51.076;17.046;2022-10-16T09:02:37;100429.28;;;17.48;95.22
31717;BME280;18301;51.076;17.046;2022-10-16T09:18:56;100433.44;;;17.96;92.89
31717;BME280;18301;51.076;17.046;2022-10-16T09:24:13;100429.75;;;18.05;92.11
31717;BME280;18301;51.076;17.046;2022-10-16T09:29:17;100432.94;;;18.27;92.76
31717;BME280;18301;51.076;17.046;2022-10-16T09:39:28;100437.91;;;18.31;88.50
31717;BME280;18301;51.076;17.046;2022-10-16T09:44:31;100436.41;;;18.37;88.76
31717;BME280;18301;51.076;17.046;2022-10-16T09:49:33;100431.09;;;18.70;87.49
31717;BME280;18301;51.076;17.046;2022-10-16T09:54:34;100431.22;;;19.02;82.54
31717;BME280;18301;51.076;17.046;2022-10-16T09:59:46;100432.97;;;19.20;84.37
31717;BME280;18301;51.076;17.046;2022-10-16T10:04:52;100431.63;;;19.57;83.47
31717;BME280;18301;51.076;17.046;2022-10-16T10:09:58;100433.88;;;19.86;78.80
31717;BME280;18301;51.076;17.046;2022-10-16T10:15:13;100431.97;;;20.03;79.04
31717;BME280;18301;51.076;17.046;2022-10-16T10:36:35;100436.06;;;20.71;75.35
31717;BME280;18301;51.076;17.046;2022-10-16T10:58:24;100426.16;;;21.01;74.65
31717;BME280;18301;51.076;17.046;2022-10-16T11:09:30;100437.75;;;21.11;72.38
31717;BME280;18301;51.076;17.046;2022-10-16T11:14:49;100416.97;;;20.85;73.87
31717;BME280;18301;51.076;17.046;2022-10-16T11:20:00;100423.16;;;20.87;73.01
31717;BME280;18301;51.076;17.046;2022-10-16T11:25:19;100421.91;;;20.59;74.22
31717;BME280;18301;51.076;17.046;2022-10-16T11:30:27;100412.25;;;20.23;75.72
31717;BME280;18301;51.076;17.046;2022-10-16T11:41:07;100422.78;;;20.43;77.13
31717;BME280;18301;51.076;17.046;2022-10-16T11:46:19;100418.56;;;20.80;75.41
31717;BME280;18301;51.076;17.046;2022-10-16T11:51:43;100409.44;;;20.87;75.84
31717;BME280;18301;51.076;17.046;2022-10-16T11:56:51;100409.50;;;21.02;75.36
31717;BME280;18301;51.076;17.046;2022-10-16T12:07:41;100418.81;;;20.62;75.17
31717;BME280;18301;51.076;17.046;2022-10-16T12:12:48;100426.72;;;20.49;76.61
31717;BME280;18301;51.076;17.046;2022-10-16T12:17:50;100432.06;;;20.42;76.91
31717;BME280;18301;51.076;17.046;2022-10-16T12:22:56;100458.06;;;20.46;76.32
31717;BME280;18301;51.076;17.046;2022-10-16T12:28:00;100468.19;;;20.45;76.17
31717;BME280;18301;51.076;17.046;2022-10-16T12:33:05;100465.66;;;20.19;75.98
31717;BME280;18301;51.076;17.046;2022-10-16T12:38:14;100465.84;;;20.10;77.02
31717;BME280;18301;51.076;17.046;2022-10-16T12:48:27;100480.59;;;19.76;77.95
31717;BME280;18301;51.076;17.046;2022-10-16T13:10:25;100487.97;;;19.84;79.10
31717;BME280;18301;51.076;17.046;2022-10-16T13:26:17;100496.00;;;19.93;79.79
31717;BME280;18301;51.076;17.046;2022-10-16T13:31:23;100503.19;;;20.03;80.29
31717;BME280;18301;51.076;17.046;2022-10-16T13:36:34;100485.06;;;20.02;80.21
31717;BME280;18301;51.076;17.046;2022-10-16T13:41:36;100500.81;;;20.08;80.22
31717;BME280;18301;51.076;17.046;2022-10-16T13:46:37;100506.59;;;20.13;80.30
31717;BME280;18301;51.076;17.046;2022-10-16T13:51:38;100500.44;;;20.27;80.09
31717;BME280;18301;51.076;17.046;2022-10-16T13:56:40;100497.13;;;20.48;79.90
31717;BME280;18301;51.076;17.046;2022-10-16T14:01:43;100504.16;;;20.59;78.74
31717;BME280;18301;51.076;17.046;2022-10-16T14:06:48;100514.13;;;20.60;77.98
31717;BME280;18301;51.076;17.046;2022-10-16T14:17:02;100526.94;;;20.59;75.15
31717;BME280;18301;51.076;17.046;2022-10-16T14:27:35;100530.03;;;20.56;75.95
31717;BME280;18301;51.076;17.046;2022-10-16T14:32:40;100525.06;;;20.60;74.66
31717;BME280;18301;51.076;17.046;2022-10-16T14:37:43;100532.63;;;20.41;75.30
31717;BME280;18301;51.076;17.046;2022-10-16T14:42:45;100538.09;;;20.33;75.62
31717;BME280;18301;51.076;17.046;2022-10-16T14:47:58;100532.28;;;20.36;75.92
31717;BME280;18301;51.076;17.046;2022-10-16T14:53:01;100529.88;;;20.25;76.90
31717;BME280;18301;51.076;17.046;2022-10-16T14:58:03;100547.53;;;20.22;76.67
31717;BME280;18301;51.076;17.046;2022-10-16T15:03:04;100550.44;;;20.21;76.87
31717;BME280;18301;51.076;17.046;2022-10-16T15:08:06;100546.34;;;20.09;77.49
31717;BME280;18301;51.076;17.046;2022-10-16T15:13:11;100544.97;;;19.96;78.11
31717;BME280;18301;51.076;17.046;2022-10-16T15:18:13;100554.72;;;19.91;78.13
31717;BME280;18301;51.076;17.046;2022-10-16T15:23:20;100543.09;;;19.81;78.65
31717;BME280;18301;51.076;17.046;2022-10-16T15:28:24;100549.06;;;19.84;78.53
31717;BME280;18301;51.076;17.046;2022-10-16T15:33:27;100548.91;;;19.77;78.91
31717;BME280;18301;51.076;17.046;2022-10-16T15:38:35;100551.13;;;19.74;79.45
31717;BME280;18301;51.076;17.046;2022-10-16T15:43:37;100554.88;;;19.65;79.70
31717;BME280;18301;51.076;17.046;2022-10-16T15:48:38;100556.19;;;19.52;80.14
31717;BME280;18301;51.076;17.046;2022-10-16T15:53:40;100574.28;;;19.45;80.37
31717;BME280;18301;51.076;17.046;2022-10-16T15:58:42;100582.44;;;19.29;81.10
31717;BME280;18301;51.076;17.046;2022-10-16T16:03:44;100586.03;;;19.21;81.83
31717;BME280;18301;51.076;17.046;2022-10-16T16:08:46;100596.75;;;19.15;82.09
31717;BME280;18301;51.076;17.046;2022-10-16T16:13:47;100605.78;;;19.07;82.47
31717;BME280;18301;51.076;17.046;2022-10-16T16:18:52;100609.25;;;18.83;83.46
31717;BME280;18301;51.076;17.046;2022-10-16T16:23:54;100614.50;;;18.76;83.54
31717;BME280;18301;51.076;17.046;2022-10-16T16:28:56;100623.13;;;18.72;84.66
31717;BME280;18301;51.076;17.046;2022-10-16T16:33:58;100634.03;;;18.63;84.27
31717;BME280;18301;51.076;17.046;2022-10-16T16:38:59;100633.97;;;18.55;84.67
31717;BME280;18301;51.076;17.046;2022-10-16T16:44:03;100637.56;;;18.38;86.46
31717;BME280;18301;51.076;17.046;2022-10-16T16:49:06;100653.75;;;18.31;85.99
31717;BME280;18301;51.076;17.046;2022-10-16T16:54:09;100644.31;;;18.26;85.32
31717;BME280;18301;51.076;17.046;2022-10-16T16:59:16;100655.56;;;18.23;85.44
31717;BME280;18301;51.076;17.046;2022-10-16T17:04:18;100657.59;;;18.21;85.71
31717;BME280;18301;51.076;17.046;2022-10-16T17:09:20;100672.00;;;18.13;85.93
31717;BME280;18301;51.076;17.046;2022-10-16T17:14:22;100683.09;;;18.11;86.10
31717;BME280;18301;51.076;17.046;2022-10-16T17:19:24;100697.78;;;18.10;86.37
31717;BME280;18301;51.076;17.046;2022-10-16T17:24:25;100704.78;;;18.13;86.54
31717;BME280;18301;51.076;17.046;2022-10-16T17:29:27;100710.56;;;18.10;86.57
31717;BME280;18301;51.076;17.046;2022-10-16T17:34:29;100706.94;;;17.91;86.97
31717;BME280;18301;51.076;17.046;2022-10-16T17:39:30;100712.47;;;17.82;87.45
31717;BME280;18301;51.076;17.046;2022-10-16T17:44:31;100712.47;;;17.82;87.17
31717;BME280;18301;51.076;17.046;2022-10-16T17:49:33;100726.69;;;17.76;87.60
31717;BME280;18301;51.076;17.046;2022-10-16T17:54:34;100731.16;;;17.77;88.19
31717;BME280;18301;51.076;17.046;2022-10-16T17:59:36;100738.06;;;17.81;87.99
31717;BME280;18301;51.076;17.046;2022-10-16T18:04:37;100741.50;;;17.83;88.03
31717;BME280;18301;51.076;17.046;2022-10-16T18:09:39;100746.38;;;17.79;88.23
31717;BME280;18301;51.076;17.046;2022-10-16T18:15:00;100749.53;;;17.75;88.44
31717;BME280;18301;51.076;17.046;2022-10-16T18:20:05;100755.44;;;17.70;88.46
31717;BME280;18301;51.076;17.046;2022-10-16T18:25:08;100749.53;;;17.75;88.35
31717;BME280;18301;51.076;17.046;2022-10-16T18:30:09;100764.50;;;17.80;88.26
31717;BME280;18301;51.076;17.046;2022-10-16T18:35:11;100756.44;;;17.79;88.35
31717;BME280;18301;51.076;17.046;2022-10-16T18:40:13;100760.22;;;17.68;88.34
31717;BME280;18301;51.076;17.046;2022-10-16T18:45:15;100778.09;;;17.53;88.62
31717;BME280;18301;51.076;17.046;2022-10-16T18:50:16;100767.03;;;17.44;88.77
31717;BME280;18301;51.076;17.046;2022-10-16T18:55:18;100789.63;;;17.37;89.00
31717;BME280;18301;51.076;17.046;2022-10-16T19:00:20;100798.53;;;17.29;89.33
31717;BME280;18301;51.076;17.046;2022-10-16T19:05:21;100796.09;;;17.26;89.77
31717;BME280;18301;51.076;17.046;2022-10-16T19:10:23;100813.75;;;17.32;89.63
31717;BME280;18301;51.076;17.046;2022-10-16T19:15:25;100808.25;;;17.41;89.53
31717;BME280;18301;51.076;17.046;2022-10-16T19:20:27;100821.19;;;17.39;89.71
31717;BME280;18301;51.076;17.046;2022-10-16T19:25:28;100827.81;;;17.37;89.56
31717;BME280;18301;51.076;17.046;2022-10-16T19:30:30;100830.13;;;17.32;89.40
31717;BME280;18301;51.076;17.046;2022-10-16T19:35:32;100825.00;;;17.09;90.21
31717;BME280;18301;51.076;17.046;2022-10-16T19:40:34;100837.06;;;16.87;91.61
31717;BME280;18301;51.076;17.046;2022-10-16T19:45:35;100834.47;;;16.76;93.25
31717;BME280;18301;51.076;17.046;2022-10-16T19:50:44;100839.88;;;16.66;92.25
31717;BME280;18301;51.076;17.046;2022-10-16T19:55:45;100855.41;;;16.75;91.13
31717;BME280;18301;51.076;17.046;2022-10-16T20:00:47;100861.56;;;16.77;91.31
31717;BME280;18301;51.076;17.046;2022-10-16T20:05:52;100860.88;;;16.85;90.84
31717;BME280;18301;51.076;17.046;2022-10-16T20:10:54;100861.44;;;16.89;90.81
31717;BME280;18301;51.076;17.046;2022-10-16T20:15:56;100871.75;;;16.85;90.67
31717;BME280;18301;51.076;17.046;2022-10-16T20:20:57;100887.41;;;16.83;90.85
31717;BME280;18301;51.076;17.046;2022-10-16T20:25:59;100890.69;;;16.87;90.69
31717;BME280;18301;51.076;17.046;2022-10-16T20:31:06;100896.44;;;16.84;90.86
31717;BME280;18301;51.076;17.046;2022-10-16T20:36:12;100906.75;;;16.90;90.55
31717;BME280;18301;51.076;17.046;2022-10-16T20:41:15;100907.50;;;16.92;90.69
31717;BME280;18301;51.076;17.046;2022-10-16T20:46:20;100906.75;;;16.90;90.46
31717;BME280;18301;51.076;17.046;2022-10-16T20:51:25;100907.31;;;16.84;90.34
31717;BME280;18301;51.076;17.046;2022-10-16T20:56:28;100914.47;;;16.75;90.54
31717;BME280;18301;51.076;17.046;2022-10-16T21:01:30;100912.59;;;16.66;90.90
31717;BME280;18301;51.076;17.046;2022-10-16T21:06:34;100914.72;;;16.62;90.60
31717;BME280;18301;51.076;17.046;2022-10-16T21:11:36;100903.53;;;16.55;90.79
31717;BME280;18301;51.076;17.046;2022-10-16T21:16:37;100907.53;;;16.51;91.04
31717;BME280;18301;51.076;17.046;2022-10-16T21:21:39;100917.28;;;16.44;91.15
31717;BME280;18301;51.076;17.046;2022-10-16T21:26:40;100918.97;;;16.36;91.29
31717;BME280;18301;51.076;17.046;2022-10-16T21:31:42;100919.09;;;16.34;91.37
31717;BME280;18301;51.076;17.046;2022-10-16T21:36:43;100915.41;;;16.45;91.06
31717;BME280;18301;51.076;17.046;2022-10-16T21:41:47;100911.34;;;16.29;91.26
31717;BME280;18301;51.076;17.046;2022-10-16T21:46:49;100933.56;;;16.34;91.33
31717;BME280;18301;51.076;17.046;2022-10-16T21:51:51;100939.56;;;16.28;91.38
31717;BME280;18301;51.076;17.046;2022-10-16T21:56:52;100951.47;;;16.27;91.37
31717;BME280;18301;51.076;17.046;2022-10-16T22:01:54;100959.50;;;16.29;90.82
31717;BME280;18301;51.076;17.046;2022-10-16T22:06:55;100961.88;;;16.22;91.03
31717;BME280;18301;51.076;17.046;2022-10-16T22:11:57;100967.06;;;16.25;91.12
31717;BME280;18301;51.076;17.046;2022-10-16T22:16:58;100964.75;;;16.21;91.05
31717;BME280;18301;51.076;17.046;2022-10-16T22:22:00;100966.16;;;16.15;90.58
31717;BME280;18301;51.076;17.046;2022-10-16T22:27:02;100958.94;;;16.04;90.61
31717;BME280;18301;51.076;17.046;2022-10-16T22:32:03;100954.31;;;15.95;90.77
31717;BME280;18301;51.076;17.046;2022-10-16T22:37:05;100952.56;;;15.94;90.71
31717;BME280;18301;51.076;17.046;2022-10-16T22:42:06;100962.59;;;15.94;90.85
31717;BME280;18301;51.076;17.046;2022-10-16T22:47:07;100958.56;;;15.88;91.09
31717;BME280;18301;51.076;17.046;2022-10-16T22:52:09;100965.38;;;15.82;90.88
31717;BME280;18301;51.076;17.046;2022-10-16T22:57:11;100964.19;;;15.75;90.75
31717;BME280;18301;51.076;17.046;2022-10-16T23:02:12;100966.97;;;15.64;90.77
31717;BME280;18301;51.076;17.046;2022-10-16T23:07:13;100959.47;;;15.56;90.79
31717;BME280;18301;51.076;17.046;2022-10-16T23:12:15;100950.22;;;15.48;90.64
31717;BME280;18301;51.076;17.046;2022-10-16T23:17:19;100949.81;;;15.31;91.26
31717;BME280;18301;51.076;17.046;2022-10-16T23:22:21;100955.53;;;15.28;91.92
31717;BME280;18301;51.076;17.046;2022-10-16T23:27:22;100974.16;;;15.33;92.34
31717;BME280;18301;51.076;17.046;2022-10-16T23:32:24;100989.59;;;15.32;92.68
31717;BME280;18301;51.076;17.046;2022-10-16T23:37:26;101001.72;;;15.39;92.56
31717;BME280;18301;51.076;17.046;2022-10-16T23:42:27;101016.28;;;15.38;92.38
31717;BME280;18301;51.076;17.046;2022-10-16T23:47:29;101011.38;;;15.32;92.19
31717;BME280;18301;51.076;17.046;2022-10-16T23:52:31;101007.28;;;15.27;92.09
31717;BME280;18301;51.076;17.046;2022-10-16T23:57:33;101004.72;;;15.25;92.23
